Time;durP1;ratioP1;P1;durP2;ratioP2;P2;SDS_P1;SDS_P2;PMS_P1;PMS_P2;Temp;Humidity;BMP_temperature;BMP_pressure;BME280_temperature;BME280_humidity;BME280_pressure;Samples;Min_cycle;Max_cycle;Signal;HPM_P1;HPM_P2
2022/11/21 00:00:53;;;;;;;5.05;3.47;;;1.50;99.90;;;;;;5068816;28;20139;-70
2022/11/21 00:03:19;;;;;;;5.78;3.80;;;1.50;99.90;;;;;;5066103;28;20040;-70
2022/11/21 00:05:47;;;;;;;5.88;3.85;;;1.40;99.90;;;;;;5041498;28;20033;-70
2022/11/21 00:08:15;;;;;;;5.50;3.83;;;1.40;99.90;;;;;;5059982;28;20056;-70
2022/11/21 00:10:41;;;;;;;5.00;3.47;;;1.40;99.90;;;;;;5060044;28;20052;-70
2022/11/21 00:13:11;;;;;;;6.32;4.22;;;1.40;99.90;;;;;;5053938;28;20045;-70
2022/11/21 00:15:36;;;;;;;5.90;4.03;;;1.40;99.90;;;;;;5053412;28;20037;-70
2022/11/21 00:18:03;;;;;;;5.10;3.30;;;1.40;99.90;;;;;;5059200;28;20048;-70
2022/11/21 00:20:29;;;;;;;;;;;1.40;99.90;;;;;;5038508;28;20294;-70
2022/11/21 00:22:55;;;;;;;4.70;3.03;;;1.40;99.90;;;;;;5048951;28;19920;-70
2022/11/21 00:25:20;;;;;;;3.83;2.85;;;1.30;99.90;;;;;;5064771;28;20051;-74
2022/11/21 00:27:46;;;;;;;4.50;3.33;;;1.40;99.90;;;;;;5054554;28;20057;-75
2022/11/21 00:30:12;;;;;;;4.80;3.50;;;1.30;99.90;;;;;;5059646;28;20112;-75
2022/11/21 00:32:38;;;;;;;5.40;3.90;;;1.40;99.90;;;;;;5070209;28;20048;-75
2022/11/21 00:35:05;;;;;;;3.60;2.75;;;1.40;99.90;;;;;;5069971;28;20043;-75
2022/11/21 00:37:31;;;;;;;6.25;4.20;;;1.40;99.90;;;;;;5085125;28;20059;-75
2022/11/21 00:39:57;;;;;;;5.63;3.90;;;1.30;99.90;;;;;;5056952;28;20076;-75
2022/11/21 00:42:23;;;;;;;5.33;4.23;;;1.30;99.90;;;;;;5040643;28;20145;-74
2022/11/21 00:44:48;;;;;;;5.13;4.03;;;1.30;99.90;;;;;;5057057;28;20646;-75
2022/11/21 00:47:14;;;;;;;6.30;4.17;;;1.30;99.90;;;;;;5056019;28;20076;-74
2022/11/21 00:49:40;;;;;;;5.33;3.83;;;1.20;99.90;;;;;;5073457;28;20283;-74
2022/11/21 00:52:05;;;;;;;5.10;3.87;;;1.20;99.90;;;;;;5073276;28;20287;-75
2022/11/21 00:54:31;;;;;;;5.47;3.65;;;1.20;99.90;;;;;;5073128;28;20377;-75
2022/11/21 00:56:57;;;;;;;5.03;3.53;;;1.20;99.90;;;;;;5073104;28;20578;-76
2022/11/21 00:59:22;;;;;;;4.47;3.23;;;1.20;99.90;;;;;;5072914;28;20503;-76
2022/11/21 01:01:48;;;;;;;4.90;3.30;;;1.10;99.90;;;;;;5056136;28;20311;-75
2022/11/21 01:04:14;;;;;;;4.60;3.25;;;1.00;99.90;;;;;;5055262;28;20307;-74
2022/11/21 01:06:39;;;;;;;5.50;3.78;;;0.90;99.90;;;;;;5072825;28;20037;-75
2022/11/21 01:09:05;;;;;;;7.20;4.63;;;0.80;99.90;;;;;;5072630;28;20476;-75
2022/11/21 01:11:31;;;;;;;8.07;5.60;;;0.70;99.90;;;;;;5039378;28;20205;-74
2022/11/21 01:13:57;;;;;;;7.63;5.38;;;0.60;99.90;;;;;;5057779;28;20045;-75
2022/11/21 01:16:25;;;;;;;7.25;5.13;;;0.50;99.90;;;;;;5036169;28;20174;-74
2022/11/21 01:18:51;;;;;;;6.57;4.57;;;0.40;99.90;;;;;;5054372;28;20045;-74
2022/11/21 01:21:23;;;;;;;6.38;4.65;;;0.30;99.90;;;;;;5069408;28;20751;-74
2022/11/21 01:23:49;;;;;;;6.13;4.05;;;0.20;99.90;;;;;;5045950;28;20044;-75
2022/11/21 01:26:23;;;;;;;6.05;4.35;;;0.20;99.90;;;;;;5072735;28;20069;-75
2022/11/21 01:28:49;;;;;;;5.20;3.65;;;0.10;99.90;;;;;;5055038;28;20479;-70
2022/11/21 01:31:24;;;;;;;5.75;4.00;;;0.00;99.90;;;;;;5056434;28;20053;-75
2022/11/21 01:33:50;;;;;;;5.97;4.28;;;-0.10;99.90;;;;;;5034562;28;20041;-75
2022/11/21 01:36:17;;;;;;;6.82;3.85;;;-0.20;99.90;;;;;;5050819;28;20041;-75
2022/11/21 01:38:46;;;;;;;5.05;3.42;;;-0.20;99.90;;;;;;5055792;28;20044;-75
2022/11/21 01:41:15;;;;;;;6.15;4.38;;;-0.30;99.90;;;;;;5070967;28;20052;-74
2022/11/21 01:43:40;;;;;;;6.55;4.70;;;-0.30;99.90;;;;;;5055128;28;20048;-75
2022/11/21 01:46:12;;;;;;;6.53;4.38;;;-0.30;99.90;;;;;;5061465;28;20479;-75
2022/11/21 01:48:56;;;;;;;6.47;4.15;;;-0.40;99.90;;;;;;5047556;28;20037;-75
2022/11/21 01:51:37;;;;;;;6.40;4.18;;;-0.40;99.90;;;;;;5066441;28;20048;-75
2022/11/21 01:54:30;;;;;;;5.30;3.92;;;-0.60;99.90;;;;;;5071040;28;20051;-75
2022/11/21 01:57:05;;;;;;;6.57;3.80;;;-0.60;99.90;;;;;;5068650;28;20063;-73
2022/11/21 01:59:41;;;;;;;5.70;4.15;;;-0.70;99.90;;;;;;5071000;28;20044;-75
2022/11/21 02:02:10;;;;;;;4.78;3.70;;;-0.80;99.90;;;;;;5051986;28;20045;-74
2022/11/21 02:04:37;;;;;;;6.18;4.03;;;-0.80;99.90;;;;;;5057122;28;20385;-76
2022/11/21 02:07:06;;;;;;;5.50;3.88;;;-0.90;99.90;;;;;;5067875;28;20049;-74
2022/11/21 02:09:35;;;;;;;6.18;3.90;;;-0.90;99.90;;;;;;5051222;28;20076;-74
2022/11/21 02:12:08;;;;;;;5.57;3.63;;;-0.90;99.90;;;;;;5051802;28;20059;-75
2022/11/21 02:14:35;;;;;;;4.00;3.05;;;-0.90;99.90;;;;;;5067517;28;20048;-75
2022/11/21 02:17:06;;;;;;;4.57;3.15;;;-0.90;99.90;;;;;;5050994;28;20059;-75
2022/11/21 02:19:46;;;;;;;5.07;3.33;;;-0.90;99.90;;;;;;5065667;28;20065;-75
2022/11/21 02:22:37;;;;;;;5.47;3.17;;;-1.00;99.90;;;;;;5051386;28;20408;-75
2022/11/21 02:25:13;;;;;;;4.50;3.08;;;-1.00;99.90;;;;;;5063060;28;20060;-75
2022/11/21 02:27:38;;;;;;;4.93;3.13;;;-1.00;99.90;;;;;;5053531;28;20053;-75
2022/11/21 02:30:06;;;;;;;5.95;3.38;;;-1.10;99.90;;;;;;5068145;28;20043;-74
2022/11/21 02:32:38;;;;;;;5.18;3.53;;;-1.10;99.90;;;;;;5060446;28;20044;-75
2022/11/21 02:35:05;;;;;;;4.15;3.25;;;-1.10;99.90;;;;;;5053728;28;20136;-75
2022/11/21 02:37:34;;;;;;;4.18;3.17;;;-1.10;99.90;;;;;;5071936;28;20044;-74
2022/11/21 02:40:05;;;;;;;5.07;3.30;;;-1.10;99.90;;;;;;5060001;28;20037;-75
2022/11/21 02:42:36;;;;;;;3.70;2.75;;;-1.10;99.90;;;;;;5053453;28;20136;-75
2022/11/21 02:45:17;;;;;;;4.75;3.10;;;-1.10;99.90;;;;;;5050818;28;20122;-74
2022/11/21 02:47:44;;;;;;;4.60;2.97;;;-1.10;99.90;;;;;;5034326;28;20048;-75
2022/11/21 02:50:14;;;;;;;3.97;2.78;;;-1.10;99.90;;;;;;5063814;28;20119;-75
2022/11/21 02:52:40;;;;;;;4.68;3.40;;;-1.10;99.90;;;;;;5070858;28;20159;-75
2022/11/21 02:55:07;;;;;;;4.40;3.10;;;-1.20;99.90;;;;;;5060825;28;20108;-75
2022/11/21 02:57:33;;;;;;;4.60;3.40;;;-1.20;99.90;;;;;;5051373;28;20053;-75
2022/11/21 02:59:59;;;;;;;5.03;3.30;;;-1.20;99.90;;;;;;5034662;28;20041;-75
2022/11/21 03:02:25;;;;;;;4.50;3.30;;;-1.30;99.90;;;;;;5059540;28;20054;-75
2022/11/21 03:04:50;;;;;;;4.32;3.33;;;-1.30;99.90;;;;;;5070882;28;20064;-75
2022/11/21 03:07:16;;;;;;;5.32;3.28;;;-1.40;99.90;;;;;;5065137;28;20041;-75
2022/11/21 03:09:42;;;;;;;4.63;3.20;;;-1.40;99.90;;;;;;5034811;28;20427;-75
2022/11/21 03:12:09;;;;;;;3.93;2.80;;;-1.30;99.90;;;;;;5050202;28;20033;-75
2022/11/21 03:14:35;;;;;;;3.58;2.58;;;-1.30;99.90;;;;;;5068831;28;20294;-75
2022/11/21 03:17:01;;;;;;;;;;;-1.20;99.90;;;;;;5071435;28;20059;-76
2022/11/21 03:19:27;;;;;;;4.63;3.03;;;-1.20;99.90;;;;;;5066664;28;19916;-75
2022/11/21 03:21:52;;;;;;;3.72;2.63;;;-1.20;99.90;;;;;;5064666;28;20514;-74
2022/11/21 03:24:18;;;;;;;3.80;2.58;;;-1.20;99.90;;;;;;5071255;28;20405;-75
2022/11/21 03:26:44;;;;;;;4.97;3.00;;;-1.20;99.90;;;;;;5054041;28;20052;-74
2022/11/21 03:29:09;;;;;;;4.53;3.05;;;-1.20;99.90;;;;;;5035852;28;20090;-75
2022/11/21 03:31:35;;;;;;;4.40;3.05;;;-1.20;99.90;;;;;;5068080;28;20143;-75
2022/11/21 03:34:01;;;;;;;4.15;2.35;;;-1.30;99.90;;;;;;5039696;28;20500;-75
2022/11/21 03:36:27;;;;;;;4.65;3.03;;;-1.30;99.90;;;;;;5061083;28;20036;-75
2022/11/21 03:38:55;;;;;;;4.60;3.10;;;-1.40;99.90;;;;;;5054617;28;20052;-75
2022/11/21 03:41:30;;;;;;;4.07;2.80;;;-1.50;99.90;;;;;;5070008;28;20048;-70
2022/11/21 03:44:00;;;;;;;4.38;3.17;;;-1.50;99.90;;;;;;5052901;28;20041;-71
2022/11/21 03:46:27;;;;;;;5.47;3.42;;;-1.50;99.90;;;;;;5047215;28;20102;-70
2022/11/21 03:48:53;;;;;;;3.92;2.80;;;-1.60;99.90;;;;;;5049012;28;20123;-71
2022/11/21 03:51:19;;;;;;;3.97;2.83;;;-1.60;99.90;;;;;;5041490;28;20559;-71
2022/11/21 03:53:45;;;;;;;4.25;2.90;;;-1.60;99.90;;;;;;5069152;28;20048;-71
2022/11/21 03:56:11;;;;;;;4.53;2.92;;;-1.70;99.90;;;;;;5042518;28;20103;-70
2022/11/21 03:58:37;;;;;;;5.43;3.30;;;-1.70;99.90;;;;;;5051182;28;20051;-71
2022/11/21 04:01:04;;;;;;;4.13;2.95;;;-1.70;99.90;;;;;;5050024;28;20554;-71
2022/11/21 04:03:30;;;;;;;4.53;3.03;;;-1.80;99.90;;;;;;5051935;28;20094;-70
2022/11/21 04:05:56;;;;;;;4.57;3.22;;;-1.80;99.90;;;;;;5051424;28;20388;-71
2022/11/21 04:08:22;;;;;;;4.55;2.90;;;-1.80;99.90;;;;;;5057049;28;20045;-70
2022/11/21 04:10:49;;;;;;;5.38;3.50;;;-1.80;99.90;;;;;;5065221;28;20043;-70
2022/11/21 04:13:15;;;;;;;5.13;3.70;;;-1.80;99.90;;;;;;5053066;28;20110;-70
2022/11/21 04:15:41;;;;;;;4.40;3.20;;;-1.80;99.90;;;;;;5053544;28;20057;-70
2022/11/21 04:18:07;;;;;;;4.65;3.13;;;-1.80;99.90;;;;;;5069586;28;20048;-71
2022/11/21 04:20:32;;;;;;;4.82;3.20;;;-1.80;99.90;;;;;;5072954;28;20480;-71
2022/11/21 04:22:58;;;;;;;4.05;2.75;;;-1.80;99.90;;;;;;5073025;28;20093;-70
2022/11/21 04:25:24;;;;;;;4.30;2.97;;;-1.70;99.90;;;;;;5055972;28;20044;-71
2022/11/21 04:27:49;;;;;;;5.15;3.30;;;-1.60;99.90;;;;;;5072151;28;20287;-70
2022/11/21 04:30:15;;;;;;;5.43;3.60;;;-1.50;99.90;;;;;;5056903;28;20127;-71
2022/11/21 04:32:41;;;;;;;6.70;4.10;;;-1.50;99.90;;;;;;5053159;28;20072;-71
2022/11/21 04:35:07;;;;;;;8.93;5.43;;;-1.40;99.90;;;;;;5069141;28;20507;-71
2022/11/21 04:37:32;;;;;;;7.30;4.68;;;-1.30;99.90;;;;;;5035601;28;20029;-71
2022/11/21 04:39:58;;;;;;;8.40;5.47;;;-1.30;99.90;;;;;;5051880;28;20040;-71
2022/11/21 04:42:24;;;;;;;7.95;4.85;;;-1.30;99.90;;;;;;5053835;28;20106;-70
2022/11/21 04:44:49;;;;;;;7.43;5.10;;;-1.20;99.90;;;;;;5068516;28;20133;-71
2022/11/21 04:47:15;;;;;;;7.97;4.93;;;-1.20;99.90;;;;;;5066334;28;20860;-70
2022/11/21 04:49:41;;;;;;;12.80;7.43;;;-1.20;99.90;;;;;;5058091;28;20299;-70
2022/11/21 04:52:06;;;;;;;13.50;8.60;;;-1.10;99.90;;;;;;5052174;28;20290;-70
2022/11/21 04:54:32;;;;;;;10.18;6.72;;;-1.10;99.90;;;;;;5053391;28;20314;-70
2022/11/21 04:56:58;;;;;;;10.95;6.75;;;-1.00;99.90;;;;;;5056734;28;20044;-70
2022/11/21 04:59:23;;;;;;;10.50;6.63;;;-1.00;99.90;;;;;;5035951;28;20044;-70
2022/11/21 05:01:49;;;;;;;7.53;5.17;;;-1.10;99.90;;;;;;5065815;28;20123;-71
2022/11/21 05:04:14;;;;;;;7.87;4.80;;;-1.10;99.90;;;;;;5061777;28;20322;-70
2022/11/21 05:06:40;;;;;;;5.60;3.97;;;-1.20;99.90;;;;;;5040395;28;20072;-70
2022/11/21 05:09:06;;;;;;;8.63;4.63;;;-1.20;99.90;;;;;;5069416;28;20051;-70
2022/11/21 05:14:15;;;;;;;7.50;4.60;;;-1.30;99.90;;;;;;5055681;28;20825;-71
2022/11/21 05:16:41;;;;;;;7.20;4.27;;;-1.30;99.90;;;;;;5045701;28;20064;-70
2022/11/21 05:19:08;;;;;;;7.60;5.17;;;-1.30;99.90;;;;;;5055447;28;20843;-70
2022/11/21 05:21:33;;;;;;;8.68;5.47;;;-1.30;99.90;;;;;;5051721;28;20303;-70
2022/11/21 05:23:59;;;;;;;8.70;5.25;;;-1.40;99.90;;;;;;5059603;28;20060;-69
2022/11/21 05:26:25;;;;;;;8.65;5.15;;;-1.40;99.90;;;;;;5061194;28;20053;-70
2022/11/21 05:28:50;;;;;;;9.20;5.80;;;-1.50;99.90;;;;;;5052612;28;20041;-70
2022/11/21 05:31:16;;;;;;;9.37;6.13;;;-1.50;99.90;;;;;;5076970;28;20072;-70
2022/11/21 05:33:42;;;;;;;7.80;4.93;;;-1.50;99.90;;;;;;5054513;28;20303;-70
2022/11/21 05:36:07;;;;;;;8.07;5.30;;;-1.60;99.90;;;;;;5034838;28;20400;-70
2022/11/21 05:38:33;;;;;;;7.00;4.27;;;-1.60;99.90;;;;;;5062841;28;20377;-70
2022/11/21 05:40:59;;;;;;;7.05;4.43;;;-1.60;99.90;;;;;;5060433;28;20310;-70
2022/11/21 05:46:09;;;;;;;8.18;5.18;;;-1.70;99.90;;;;;;5053209;28;20380;-71
2022/11/21 05:48:35;;;;;;;7.80;4.95;;;-1.70;99.90;;;;;;5054938;28;20045;-70
2022/11/21 05:51:02;;;;;;;8.13;5.15;;;-1.80;99.90;;;;;;5037915;28;20044;-70
2022/11/21 05:53:28;;;;;;;6.88;4.70;;;-1.80;99.90;;;;;;5064395;28;20037;-70
2022/11/21 05:55:54;;;;;;;6.15;4.25;;;-1.90;99.90;;;;;;5044099;28;20506;-71
2022/11/21 05:58:19;;;;;;;6.70;4.30;;;-1.90;99.90;;;;;;5060952;28;20091;-70
2022/11/21 06:00:45;;;;;;;6.13;4.07;;;-1.90;99.90;;;;;;5059617;28;20372;-71
2022/11/21 06:03:26;;;;;;;6.47;3.97;;;-1.90;99.90;;;;;;5059625;28;20051;-71
2022/11/21 06:06:13;;;;;;;7.40;4.28;;;-2.00;99.90;;;;;;5060331;28;20372;-71
2022/11/21 06:08:41;;;;;;;7.47;4.55;;;-2.00;99.90;;;;;;5042510;28;20049;-70
2022/11/21 06:11:09;;;;;;;8.82;5.35;;;-2.00;99.90;;;;;;5081084;28;20126;-70
2022/11/21 06:13:36;;;;;;;8.68;5.15;;;-2.00;99.90;;;;;;5084516;28;20488;-70
2022/11/21 06:16:12;;;;;;;6.90;4.60;;;-1.90;99.90;;;;;;5084450;28;20382;-71
2022/11/21 06:18:39;;;;;;;6.40;4.30;;;-1.90;99.90;;;;;;5084675;28;20476;-71
2022/11/21 06:21:07;;;;;;;6.47;4.22;;;-1.90;99.90;;;;;;5073092;28;20037;-71
2022/11/21 06:23:34;;;;;;;6.03;3.80;;;-1.90;99.90;;;;;;5033262;28;20048;-71
2022/11/21 06:26:02;;;;;;;7.47;4.20;;;-2.00;99.90;;;;;;5051990;28;20064;-71
2022/11/21 06:28:36;;;;;;;6.10;3.90;;;-1.90;99.90;;;;;;5051481;28;20094;-70
2022/11/21 06:31:07;;;;;;;5.28;3.30;;;-2.00;99.90;;;;;;5050981;28;20192;-70
2022/11/21 06:33:34;;;;;;;4.95;3.00;;;-2.00;99.90;;;;;;5058269;28;20048;-71
2022/11/21 06:36:04;;;;;;;5.78;3.58;;;-2.00;99.90;;;;;;5063002;28;20044;-70
2022/11/21 06:38:30;;;;;;;5.40;3.67;;;-2.10;99.90;;;;;;5066669;28;20095;-70
2022/11/21 06:40:56;;;;;;;7.47;4.70;;;-2.10;99.90;;;;;;5044915;28;20048;-70
2022/11/21 06:43:22;;;;;;;9.07;5.28;;;-2.20;99.90;;;;;;5035857;28;20047;-70
2022/11/21 06:45:48;;;;;;;7.43;4.75;;;-2.20;99.90;;;;;;5071291;28;20132;-70
2022/11/21 06:48:13;;;;;;;6.90;4.30;;;-2.30;99.90;;;;;;5057937;28;20131;-70
2022/11/21 06:50:39;;;;;;;5.00;3.47;;;-2.30;99.90;;;;;;5046444;28;20041;-70
2022/11/21 06:53:05;;;;;;;5.95;3.70;;;-2.30;99.90;;;;;;5076971;28;20040;-73
2022/11/21 06:55:31;;;;;;;5.93;3.88;;;-2.30;99.90;;;;;;5053083;28;20076;-70
2022/11/21 06:57:58;;;;;;;7.68;4.15;;;-2.20;99.90;;;;;;5050257;28;20041;-70
2022/11/21 07:00:24;;;;;;;8.32;5.55;;;-2.20;99.90;;;;;;5033774;28;20036;-70
2022/11/21 07:02:50;;;;;;;10.77;6.13;;;-2.20;99.90;;;;;;5058364;28;20105;-77
2022/11/21 07:05:16;;;;;;;9.10;5.90;;;-2.20;99.90;;;;;;5041577;28;20403;-71
2022/11/21 07:07:42;;;;;;;8.35;5.53;;;-2.20;99.90;;;;;;5049439;28;20045;-70
2022/11/21 07:10:08;;;;;;;8.27;4.97;;;-2.30;99.90;;;;;;5062380;28;20039;-70
2022/11/21 07:15:19;;;;;;;6.55;4.22;;;-2.30;99.90;;;;;;5052401;28;20044;-70
2022/11/21 07:17:45;;;;;;;6.55;4.15;;;-2.30;99.90;;;;;;5066803;28;20071;-70
2022/11/21 07:20:11;;;;;;;7.82;4.55;;;-2.30;99.90;;;;;;5067272;28;20048;-71
2022/11/21 07:22:37;;;;;;;5.93;3.92;;;-2.30;99.90;;;;;;5068915;28;20044;-71
2022/11/21 07:25:03;;;;;;;5.05;3.75;;;-2.30;99.90;;;;;;5069105;28;20047;-70
2022/11/21 07:27:29;;;;;;;;;;;-2.40;99.90;;;;;;5051731;28;20408;-70
2022/11/21 07:29:57;;;;;;;6.28;3.90;;;-2.40;99.90;;;;;;5069361;28;19920;-70
2022/11/21 07:32:27;;;;;;;6.72;3.85;;;-2.40;99.90;;;;;;5068901;28;20040;-71
2022/11/21 07:34:52;;;;;;;6.88;4.18;;;-2.30;99.90;;;;;;5052357;28;20483;-70
2022/11/21 07:37:18;;;;;;;6.22;3.80;;;-2.30;99.90;;;;;;5051328;28;20051;-70
2022/11/21 07:39:44;;;;;;;5.82;3.50;;;-2.30;99.90;;;;;;5069108;28;20049;-70
2022/11/21 07:42:10;;;;;;;5.25;3.40;;;-2.20;99.90;;;;;;5052670;28;20055;-71
2022/11/21 07:44:35;;;;;;;4.50;2.63;;;-2.10;99.90;;;;;;5068916;28;20055;-71
2022/11/21 07:47:01;;;;;;;7.57;5.10;;;-2.00;99.90;;;;;;5069084;28;20040;-71
2022/11/21 07:49:27;;;;;;;11.35;6.43;;;-1.90;99.90;;;;;;5052626;28;20044;-71
2022/11/21 07:51:52;;;;;;;13.13;7.28;;;-1.70;99.90;;;;;;5052301;28;20055;-70
2022/11/21 07:54:18;;;;;;;11.27;7.47;;;-1.50;99.90;;;;;;5069444;28;20056;-71
2022/11/21 07:56:44;;;;;;;13.43;7.80;;;-1.40;99.90;;;;;;5052395;28;20290;-71
2022/11/21 07:59:10;;;;;;;11.30;7.27;;;-1.30;99.90;;;;;;5052779;28;20279;-71
2022/11/21 08:01:35;;;;;;;13.45;8.52;;;-1.20;99.90;;;;;;5040039;28;20697;-71
2022/11/21 08:04:01;;;;;;;13.52;8.88;;;-1.20;99.90;;;;;;5014507;28;20044;-71
2022/11/21 08:06:27;;;;;;;13.23;8.10;;;-1.10;99.90;;;;;;5047413;28;20041;-71
2022/11/21 08:08:53;;;;;;;11.07;6.60;;;-1.00;99.90;;;;;;5048760;28;20287;-71
2022/11/21 08:11:19;;;;;;;9.15;5.40;;;-1.00;99.90;;;;;;5048904;28;20271;-71
2022/11/21 08:13:45;;;;;;;8.98;5.13;;;-0.90;99.90;;;;;;5048841;28;20041;-71
2022/11/21 08:16:11;;;;;;;8.90;5.03;;;-0.90;99.90;;;;;;5049036;28;20098;-71
2022/11/21 08:18:37;;;;;;;7.83;4.90;;;-0.80;99.90;;;;;;5049234;28;20079;-71
2022/11/21 08:21:03;;;;;;;13.27;8.27;;;-0.70;99.90;;;;;;5048892;28;20298;-72
2022/11/21 08:23:30;;;;;;;14.18;8.07;;;-0.60;99.90;;;;;;5032038;28;20307;-71
2022/11/21 08:25:56;;;;;;;11.68;7.47;;;-0.60;99.90;;;;;;5033051;28;20048;-71
2022/11/21 08:28:22;;;;;;;15.27;9.77;;;-0.50;99.90;;;;;;5051995;28;20055;-71
2022/11/21 08:30:48;;;;;;;14.50;9.55;;;-0.40;99.90;;;;;;5068775;28;20041;-71
2022/11/21 08:33:13;;;;;;;17.25;9.65;;;-0.30;99.90;;;;;;5052075;28;20051;-71
2022/11/21 08:35:41;;;;;;;13.60;8.50;;;-0.20;99.90;;;;;;5052160;28;20052;-71
2022/11/21 08:38:07;;;;;;;18.85;12.15;;;0.00;99.90;;;;;;5067845;28;20041;-71
2022/11/21 08:40:34;;;;;;;15.05;9.73;;;0.10;99.90;;;;;;5067819;28;20047;-71
2022/11/21 08:43:05;;;;;;;14.43;9.55;;;0.20;99.90;;;;;;5068450;28;20098;-71
2022/11/21 08:45:33;;;;;;;12.57;8.30;;;0.30;99.90;;;;;;5068432;28;20043;-71
2022/11/21 08:47:59;;;;;;;13.45;8.80;;;0.40;99.90;;;;;;5067497;28;20090;-70
2022/11/21 08:50:25;;;;;;;11.40;7.78;;;0.60;99.90;;;;;;5071839;28;20040;-70
2022/11/21 08:52:51;;;;;;;11.55;7.07;;;0.60;99.90;;;;;;5072263;28;20067;-71
2022/11/21 08:55:17;;;;;;;10.18;7.07;;;0.70;99.90;;;;;;5072437;28;20056;-71
2022/11/21 08:57:42;;;;;;;10.95;7.03;;;0.80;99.90;;;;;;5055334;28;20109;-71
2022/11/21 09:00:11;;;;;;;11.70;8.25;;;0.80;99.90;;;;;;5071935;28;20048;-71
2022/11/21 09:02:37;;;;;;;13.27;8.70;;;0.80;99.90;;;;;;5039033;28;20365;-71
2022/11/21 09:05:03;;;;;;;11.35;7.70;;;0.90;99.90;;;;;;5055439;28;20040;-71
2022/11/21 09:07:29;;;;;;;11.75;7.72;;;0.90;99.90;;;;;;5071869;28;20138;-71
2022/11/21 09:09:55;;;;;;;12.50;8.80;;;0.90;99.90;;;;;;5055214;28;20074;-71
2022/11/21 09:12:20;;;;;;;11.45;7.82;;;0.90;99.90;;;;;;5071719;28;20044;-71
2022/11/21 09:20:14;;;;;;;15.18;10.43;;;1.00;99.90;;;;;;5071973;28;20424;-71
2022/11/21 09:22:40;;;;;;;13.57;9.43;;;1.00;99.90;;;;;;5071696;28;20045;-71
2022/11/21 09:25:06;;;;;;;15.25;10.40;;;1.10;99.90;;;;;;5071616;28;20043;-72
2022/11/21 09:27:32;;;;;;;14.77;10.15;;;1.10;99.90;;;;;;5054608;28;20128;-69
2022/11/21 09:29:57;;;;;;;19.10;13.15;;;1.20;99.90;;;;;;5054831;28;20080;-71
2022/11/21 09:32:23;;;;;;;18.83;11.70;;;1.20;99.90;;;;;;5054851;28;20083;-71
2022/11/21 09:34:48;;;;;;;16.05;10.57;;;1.20;99.90;;;;;;5054857;28;20295;-71
2022/11/21 09:37:14;;;;;;;13.77;9.68;;;1.30;99.90;;;;;;5054938;28;20059;-71
2022/11/21 09:39:40;;;;;;;17.60;11.60;;;1.30;99.90;;;;;;5071591;28;20055;-71
2022/11/21 09:42:43;;;;;;;17.58;11.85;;;1.30;99.90;;;;;;5071396;28;20068;-70
2022/11/21 09:45:14;;;;;;;17.15;11.52;;;1.40;99.90;;;;;;5071205;28;20052;-70
2022/11/21 09:47:44;;;;;;;14.68;10.23;;;1.40;99.90;;;;;;5071389;28;20192;-70
2022/11/21 09:50:13;;;;;;;15.57;10.63;;;1.40;99.90;;;;;;5067312;28;20036;-71
2022/11/21 09:52:45;;;;;;;21.52;14.38;;;1.50;99.90;;;;;;5070175;28;20052;-71
2022/11/21 09:55:17;;;;;;;17.85;11.75;;;1.50;99.90;;;;;;5070272;28;20345;-71
2022/11/21 09:57:44;;;;;;;18.95;12.77;;;1.60;99.90;;;;;;5069797;28;20132;-71
2022/11/21 10:00:19;;;;;;;19.42;13.48;;;1.60;99.90;;;;;;5070303;28;20409;-71
2022/11/21 10:02:45;;;;;;;20.13;12.70;;;1.60;99.90;;;;;;5071020;28;20048;-71
2022/11/21 10:05:14;;;;;;;16.50;11.55;;;1.60;99.90;;;;;;5071120;28;20480;-71
2022/11/21 10:07:41;;;;;;;14.57;10.25;;;1.70;99.90;;;;;;5072266;28;20114;-71
2022/11/21 10:10:18;;;;;;;15.98;11.30;;;1.80;99.90;;;;;;5070852;28;20502;-71
2022/11/21 10:12:46;;;;;;;14.88;9.95;;;1.80;99.90;;;;;;5054174;28;20396;-71
2022/11/21 10:15:44;;;;;;;19.55;13.05;;;1.90;99.90;;;;;;5054063;28;20049;-71
2022/11/21 10:18:26;;;;;;;17.85;12.60;;;1.90;99.90;;;;;;5070689;28;20075;-71
2022/11/21 10:20:55;;;;;;;20.35;13.88;;;1.90;99.90;;;;;;5054153;28;20044;-71
2022/11/21 10:23:28;;;;;;;18.67;12.73;;;1.80;99.90;;;;;;5070701;28;20407;-71
2022/11/21 10:26:03;;;;;;;18.88;12.40;;;1.90;99.90;;;;;;5070321;28;20395;-71
2022/11/21 10:28:41;;;;;;;19.33;13.32;;;1.90;99.90;;;;;;5070672;28;20053;-71
2022/11/21 10:31:13;;;;;;;16.85;11.88;;;1.90;99.90;;;;;;5070358;28;20056;-71
2022/11/21 10:33:39;;;;;;;18.25;12.52;;;2.00;99.90;;;;;;5071825;28;20040;-71
2022/11/21 10:36:26;;;;;;;16.77;12.10;;;2.00;99.90;;;;;;5070296;28;20053;-70
2022/11/21 10:39:09;;;;;;;16.30;11.82;;;2.00;99.90;;;;;;5070542;28;20036;-71
2022/11/21 10:42:02;;;;;;;17.23;12.18;;;2.00;99.90;;;;;;5070524;28;20048;-71
2022/11/21 10:47:26;;;;;;;15.30;10.63;;;2.10;99.90;;;;;;5070818;28;20156;-75
2022/11/21 10:49:58;;;;;;;17.42;11.00;;;2.20;99.90;;;;;;5053775;28;20114;-74
2022/11/21 10:52:26;;;;;;;18.55;12.70;;;2.20;99.90;;;;;;5053704;28;20037;-75
2022/11/21 10:55:03;;;;;;;16.10;11.10;;;2.20;99.90;;;;;;5070671;28;20462;-76
2022/11/21 10:57:44;;;;;;;16.90;11.88;;;2.30;99.90;;;;;;5070971;28;20072;-74
2022/11/21 11:00:13;;;;;;;14.68;10.70;;;2.40;99.90;;;;;;5070563;28;20491;-75
2022/11/21 11:02:41;;;;;;;16.02;11.45;;;2.50;99.90;;;;;;5070256;28;20160;-75
2022/11/21 11:05:17;;;;;;;15.40;11.25;;;2.70;99.90;;;;;;5070416;28;20052;-75
2022/11/21 11:08:05;;;;;;;14.88;11.00;;;3.00;99.90;;;;;;5070749;28;20117;-75
2022/11/21 11:10:33;;;;;;;14.57;10.60;;;3.20;99.90;;;;;;5070197;28;20048;-75
2022/11/21 11:16:15;;;;;;;16.33;10.85;;;3.40;99.90;;;;;;5070062;28;20045;-76
2022/11/21 11:18:45;;;;;;;15.10;11.30;;;4.00;99.90;;;;;;5057459;28;20151;-76
2022/11/21 11:21:19;;;;;;;17.13;12.80;;;4.40;99.90;;;;;;5070216;28;20045;-75
2022/11/21 11:23:46;;;;;;;14.95;11.63;;;4.60;99.90;;;;;;5070134;28;20102;-75
2022/11/21 11:26:28;;;;;;;14.65;11.18;;;5.00;99.90;;;;;;5069906;28;20060;-75
2022/11/21 11:29:26;;;;;;;16.13;11.93;;;5.30;99.90;;;;;;5070532;28;20040;-75
2022/11/21 11:31:58;;;;;;;15.63;11.77;;;5.60;99.90;;;;;;5069916;28;20048;-74
2022/11/21 11:34:45;;;;;;;16.10;11.52;;;5.70;99.90;;;;;;5070235;28;20075;-75
2022/11/21 11:37:39;;;;;;;13.10;10.15;;;5.80;99.90;;;;;;5069879;28;20055;-75
2022/11/21 11:40:42;;;;;;;15.00;11.43;;;5.90;99.90;;;;;;5070373;28;20052;-76
2022/11/21 11:49:11;;;;;;;15.10;11.43;;;5.90;99.90;;;;;;5069767;28;20369;-75
2022/11/21 11:51:46;;;;;;;14.38;10.82;;;5.90;99.90;;;;;;5069817;28;20043;-75
2022/11/21 11:54:32;;;;;;;16.13;11.70;;;5.90;99.90;;;;;;5069678;28;20078;-75
2022/11/21 11:56:58;;;;;;;14.55;10.43;;;5.70;99.90;;;;;;5071362;28;20036;-75
2022/11/21 11:59:30;;;;;;;12.23;9.73;;;5.50;99.90;;;;;;5069392;28;20402;-75
2022/11/21 12:02:01;;;;;;;12.65;9.45;;;5.20;99.90;;;;;;5069966;28;20124;-75
2022/11/21 12:04:32;;;;;;;12.50;9.82;;;5.10;99.90;;;;;;5069703;28;20055;-75
2022/11/21 12:07:27;;;;;;;16.55;12.93;;;4.90;99.90;;;;;;5071141;28;20054;-75
2022/11/21 12:10:14;;;;;;;14.18;10.93;;;4.60;99.90;;;;;;5069574;28;20541;-75
2022/11/21 12:13:12;;;;;;;16.58;11.73;;;4.60;99.90;;;;;;5069585;28;20048;-75
2022/11/21 12:15:49;;;;;;;16.02;11.90;;;4.40;99.90;;;;;;5057799;28;20500;-75
2022/11/21 12:18:15;;;;;;;12.95;9.85;;;4.40;99.90;;;;;;5052748;28;20486;-75
2022/11/21 12:21:06;;;;;;;13.98;10.20;;;4.40;99.90;;;;;;5052464;28;20146;-75
2022/11/21 12:23:53;;;;;;;14.13;9.90;;;4.30;99.90;;;;;;5070949;28;20059;-75
2022/11/21 12:26:19;;;;;;;14.70;10.95;;;4.20;99.90;;;;;;5073582;28;20156;-74
2022/11/21 12:28:53;;;;;;;14.40;10.18;;;4.20;99.90;;;;;;5073511;28;20405;-75
2022/11/21 12:31:34;;;;;;;13.60;10.15;;;4.20;99.90;;;;;;5073184;28;20110;-75
2022/11/21 12:34:06;;;;;;;13.52;10.18;;;4.10;99.90;;;;;;5073232;28;20577;-74
2022/11/21 12:36:58;;;;;;;12.65;9.85;;;4.00;99.90;;;;;;5073208;28;20148;-75
2022/11/21 12:39:56;;;;;;;12.88;8.95;;;4.00;99.90;;;;;;5073089;28;20045;-75
2022/11/21 12:45:26;;;;;;;12.35;9.15;;;3.90;99.90;;;;;;5059146;28;20052;-75
2022/11/21 12:56:56;;;;;;;11.82;7.82;;;4.10;99.90;;;;;;5073114;28;20477;-75
2022/11/21 12:59:24;;;;;;;9.75;7.22;;;4.10;99.90;;;;;;5073101;28;20044;-75
2022/11/21 13:02:04;;;;;;;12.27;8.80;;;4.20;99.90;;;;;;5072772;28;20047;-74
2022/11/21 13:04:35;;;;;;;11.00;8.43;;;4.20;99.90;;;;;;5072436;28;20458;-74
2022/11/21 13:07:02;;;;;;;10.30;7.65;;;4.30;99.90;;;;;;5072459;28;20055;-75
2022/11/21 13:09:35;;;;;;;9.68;6.88;;;4.30;99.90;;;;;;5072301;28;20063;-75
2022/11/21 13:12:17;;;;;;;8.43;6.72;;;4.20;99.90;;;;;;5073091;28;20044;-76
2022/11/21 13:14:52;;;;;;;9.15;6.70;;;4.30;99.90;;;;;;5072912;28;20044;-75
2022/11/21 13:17:29;;;;;;;7.75;6.07;;;4.30;99.90;;;;;;5074254;28;20036;-74
2022/11/21 13:19:58;;;;;;;9.05;6.85;;;4.30;99.90;;;;;;5072464;28;20041;-74
2022/11/21 13:22:36;;;;;;;8.82;6.63;;;4.30;99.90;;;;;;5072624;28;20106;-74
2022/11/21 13:25:10;;;;;;;9.18;6.40;;;4.30;99.90;;;;;;5072336;28;20056;-75
2022/11/21 13:27:38;;;;;;;9.85;7.30;;;4.30;99.90;;;;;;5072391;28;20155;-74
2022/11/21 13:30:10;;;;;;;10.68;7.57;;;4.20;99.90;;;;;;5072696;28;20037;-75
2022/11/21 13:32:53;;;;;;;10.88;8.20;;;4.30;99.90;;;;;;5055801;28;20045;-75
2022/11/21 13:35:19;;;;;;;11.18;8.18;;;4.20;99.90;;;;;;5071307;28;20098;-75